createdAt,value
2023-05-12T02:33:48.033Z,0.373
2023-05-12T02:46:48.539Z,1.494
2023-05-12T02:49:36.849Z,2.241
2023-05-12T02:55:18.580Z,4.482
2023-05-12T02:59:13.209Z,8.217
2023-05-12T03:02:47.540Z,13.819
2023-05-12T03:08:48.419Z,30.627
2023-05-12T03:12:27.828Z,48.555
2023-05-12T03:16:02.117Z,72.085
2023-05-12T03:21:11.363Z,121.761
2023-05-12T03:26:11.501Z,184.509
2023-05-12T03:31:11.626Z,249.498
2023-05-12T03:36:11.706Z,325.692
2023-05-12T03:41:11.801Z,451.188
2023-05-12T03:46:12.046Z,654.372
2023-05-12T03:51:11.986Z,908.352
2023-05-12T03:56:12.124Z,1153.368
2023-05-12T04:01:12.222Z,1380.456
2023-05-12T04:03:50.523Z,1464.12
2023-05-12T04:07:04.260Z,1589.616
2023-05-12T04:13:30.095Z,1912.32
2023-05-12T04:18:30.227Z,2139.408
2023-05-12T04:23:30.357Z,2808.72
2023-05-12T04:26:08.552Z,3023.856
2023-05-12T04:30:44.006Z,3394.368
2023-05-12T04:33:37.462Z,3657.312
2023-05-12T04:40:23.917Z,4302.72
2023-05-12T04:45:24.151Z,4732.992
2023-05-12T04:50:24.133Z,4924.224
2023-05-12T04:55:24.216Z,4876.416
2023-05-12T05:00:24.347Z,5139.36
2023-05-12T05:05:24.434Z,5258.88
2023-05-12T05:10:24.573Z,5593.536
2023-05-12T05:15:24.650Z,5999.904
2023-05-12T05:18:48.848Z,6501.888
2023-05-12T05:21:47.309Z,6836.544
2023-05-12T05:27:02.486Z,7171.2
2023-05-12T05:31:17.572Z,6979.968
2023-05-12T05:36:52.752Z,7027.776
2023-05-12T05:41:52.894Z,6884.352
2023-05-12T05:46:53.143Z,7936.128
2023-05-12T05:53:39.381Z,10565.568
2023-05-12T05:58:39.431Z,11569.536
2023-05-12T06:03:39.592Z,11712.96
2023-05-12T06:08:39.648Z,12238.848
2023-05-12T06:13:39.687Z,13003.776
2023-05-12T06:18:39.843Z,13290.624
2023-05-12T06:23:39.903Z,13959.936
2023-05-12T06:28:40.024Z,14629.248
2023-05-12T06:33:40.134Z,15585.408
2023-05-12T06:38:40.285Z,16254.72
2023-05-12T06:43:40.400Z,16732.8
2023-05-12T06:48:40.513Z,17593.344
2023-05-12T06:53:40.583Z,19123.2
2023-05-12T06:58:40.757Z,18358.272
2023-05-12T07:04:58.948Z,22852.224
2023-05-12T07:10:13.158Z,19792.512
2023-05-12T07:12:58.336Z,22852.224
2023-05-12T07:17:09.211Z,38628.864
2023-05-12T07:19:58.165Z,41497.344
2023-05-12T07:22:44.732Z,45704.448
2023-05-12T07:25:20.772Z,40349.952
2023-05-12T07:27:50.820Z,46278.144
2023-05-12T07:30:27.411Z,22852.224
2023-05-12T07:33:07.107Z,25625.088
2023-05-12T07:36:10.935Z,20653.056
2023-05-12T07:40:05.456Z,24477.696
2023-05-12T07:42:43.762Z,27537.408
2023-05-12T07:46:11.889Z,41114.88
2023-05-12T07:49:05.404Z,30979.584
2023-05-12T07:51:45.075Z,36907.776
2023-05-12T07:54:46.197Z,48572.928
2023-05-12T07:57:41.322Z,50102.784
2023-05-12T08:00:16.085Z,57752.064
2023-05-12T08:03:45.437Z,51632.64
2023-05-12T08:06:20.226Z,47999.232
2023-05-12T08:09:13.728Z,46086.912
2023-05-12T08:12:37.817Z,47234.304
2023-05-12T08:15:16.066Z,46851.84
2023-05-12T08:18:04.551Z,48190.464
2023-05-12T08:20:42.743Z,47616.768
2023-05-12T08:23:16.060Z,20939.904
2023-05-12T08:26:03.467Z,52780.032
2023-05-12T08:30:23.816Z,53544.96
2023-05-12T08:32:57.057Z,53544.96
2023-05-12T08:35:50.672Z,53544.96
2023-05-12T08:38:39.200Z,53544.96
2023-05-12T08:41:12.399Z,55074.816
2023-05-12T08:43:50.975Z,58516.992
2023-05-12T08:46:44.467Z,59664.384
2023-05-12T08:50:08.596Z,60046.848
2023-05-12T08:53:02.320Z,60046.848
2023-05-12T08:55:54.361Z,61194.24
2023-05-12T08:58:19.048Z,62341.632
2023-05-12T09:00:49.717Z,25433.856
2023-05-12T09:03:21.584Z,20461.824
2023-05-12T09:05:52.824Z,31170.816
2023-05-12T09:08:35.843Z,60811.776
2023-05-12T09:11:06.489Z,66548.736
2023-05-12T09:13:41.285Z,66166.272
2023-05-12T09:16:12.404Z,27154.944
2023-05-12T09:18:48.007Z,20270.592
2023-05-12T09:21:23.450Z,27919.872
2023-05-12T09:23:59.256Z,46086.912
2023-05-12T09:26:37.280Z,58899.456
2023-05-12T09:29:18.255Z,22565.376
2023-05-12T09:31:48.850Z,26390.016
2023-05-12T09:34:34.168Z,69225.984
2023-05-12T09:37:09.088Z,27919.872
2023-05-12T09:39:54.226Z,22278.528
2023-05-12T09:42:27.315Z,21417.984
2023-05-12T09:45:00.865Z,35569.152
2023-05-12T09:47:37.184Z,32318.208
2023-05-12T09:50:16.749Z,24477.696
2023-05-12T09:52:49.920Z,22182.912
2023-05-12T09:55:23.024Z,21322.368
2023-05-12T09:58:11.402Z,21322.368
2023-05-12T10:01:21.367Z,20939.904
2023-05-12T10:03:43.091Z,20366.208
2023-05-12T10:06:26.448Z,21226.752
2023-05-12T10:09:04.686Z,19218.816
2023-05-12T10:11:42.903Z,15489.792
2023-05-12T10:14:41.411Z,12908.16
2023-05-12T10:18:00.640Z,13290.624
2023-05-12T10:21:19.449Z,13386.24
2023-05-12T10:23:57.631Z,14820.48
2023-05-12T10:26:30.772Z,17975.808
2023-05-12T10:29:19.240Z,21704.832
2023-05-12T10:32:17.843Z,24286.464
2023-05-12T10:34:56.041Z,27154.944
2023-05-12T10:37:29.215Z,30979.584
2023-05-12T10:40:34.268Z,35377.92
2023-05-12T10:43:22.588Z,34421.76
2023-05-12T10:45:55.779Z,31744.512
2023-05-12T10:49:25.089Z,32126.976
2023-05-12T10:52:34.002Z,32700.672
2023-05-12T10:55:12.269Z,34230.528
2023-05-12T10:57:45.647Z,40158.72
2023-05-12T11:00:15.916Z,53927.424
2023-05-12T11:02:48.882Z,25625.088
2023-05-12T11:05:32.137Z,20079.36
2023-05-12T11:08:05.473Z,17210.88
2023-05-12T11:11:03.804Z,15202.944
2023-05-12T11:13:57.496Z,14629.248
2023-05-12T11:16:35.670Z,13768.704
2023-05-12T11:19:34.233Z,12908.16
2023-05-12T11:22:07.417Z,13673.088
2023-05-12T11:24:45.700Z,16637.184
2023-05-12T11:27:18.793Z,21322.368
2023-05-12T11:29:51.826Z,25816.32
2023-05-12T11:32:30.372Z,31170.816
2023-05-12T11:35:04.750Z,35951.616
2023-05-12T11:37:58.297Z,33656.832
2023-05-12T11:40:41.720Z,35186.688
2023-05-12T11:43:20.015Z,32700.672
2023-05-12T11:46:44.280Z,31553.28
2023-05-12T11:49:27.723Z,32318.208
2023-05-12T11:52:01.006Z,31744.512
2023-05-12T11:54:49.385Z,34039.296
2023-05-12T11:57:19.543Z,47425.536
2023-05-12T12:00:04.749Z,37481.472
2023-05-12T12:02:46.619Z,34612.992
2023-05-12T12:05:16.839Z,32700.672
2023-05-12T12:08:15.420Z,30214.656
2023-05-12T12:11:03.965Z,32318.208
2023-05-12T12:14:07.720Z,33274.368
2023-05-12T12:16:56.228Z,32509.44
2023-05-12T12:19:35.931Z,74198.016
2023-05-12T12:22:23.656Z,73815.552
2023-05-12T12:25:06.964Z,29067.264
2023-05-12T12:27:40.184Z,26390.016
2023-05-12T12:31:29.793Z,26007.552
2023-05-12T12:34:08.115Z,27728.64
2023-05-12T12:36:41.290Z,30214.656
2023-05-12T12:39:14.439Z,32318.208
2023-05-12T12:41:54.154Z,29832.192
2023-05-12T12:44:27.253Z,25051.392
2023-05-12T12:47:10.727Z,21322.368
2023-05-12T12:49:43.674Z,17975.808
2023-05-12T12:52:27.138Z,15585.408
2023-05-12T12:55:35.898Z,13481.856
2023-05-12T12:58:24.332Z,13386.24
2023-05-12T13:01:02.569Z,14055.552
2023-05-12T13:03:35.723Z,15107.328
2023-05-12T13:06:24.038Z,16254.72
2023-05-12T13:08:57.223Z,15872.256
2023-05-12T13:12:00.962Z,15011.712
2023-05-12T13:16:05.921Z,14916.096
2023-05-12T13:19:04.599Z,16063.488
2023-05-12T13:21:42.793Z,17115.264
2023-05-12T13:24:31.168Z,17019.648
2023-05-12T13:27:29.831Z,16445.952
2023-05-12T13:31:34.814Z,16350.336
2023-05-12T13:34:43.579Z,16541.568
2023-05-12T13:38:12.838Z,16828.416
2023-05-12T13:40:45.916Z,17880.192
2023-05-12T13:43:50.850Z,19888.128
2023-05-12T13:46:33.508Z,21609.216
2023-05-12T13:49:11.698Z,25242.624
2023-05-12T13:52:00.415Z,31744.512
2023-05-12T13:54:35.276Z,43027.2
2023-05-12T13:57:23.965Z,34995.456
2023-05-12T14:00:31.793Z,32891.904
2023-05-12T14:03:30.631Z,27919.872
2023-05-12T14:06:03.696Z,27919.872
2023-05-12T14:08:38.341Z,33083.136
2023-05-12T14:11:15.825Z,46469.376
2023-05-12T14:13:46.913Z,25816.32
2023-05-12T14:16:50.723Z,21896.064
2023-05-12T14:19:34.024Z,20939.904
2023-05-12T14:24:56.923Z,20461.824
2023-05-12T14:27:50.472Z,24668.928
2023-05-12T14:30:51.144Z,23808.384
2023-05-12T14:33:29.365Z,28876.032
2023-05-12T14:36:07.703Z,43218.432
2023-05-12T14:38:57.388Z,29832.192
2023-05-12T14:41:28.490Z,29067.264
2023-05-12T14:44:02.097Z,52397.568
2023-05-12T14:46:33.501Z,30597.12
2023-05-12T14:49:24.078Z,53162.496
2023-05-12T14:52:28.755Z,24286.464
2023-05-12T14:55:08.926Z,48764.16
2023-05-12T14:57:38.057Z,51632.64
2023-05-12T15:00:14.735Z,54309.888
2023-05-12T15:02:51.341Z,36716.544
2023-05-12T15:05:53.216Z,22565.376
2023-05-12T15:08:12.100Z,25625.088
2023-05-12T15:10:54.935Z,15298.56
2023-05-12T15:13:29.940Z,44365.824
2023-05-12T15:16:02.009Z,24095.232
2023-05-12T15:18:45.736Z,15776.64
2023-05-12T15:21:58.428Z,37863.936
2023-05-12T15:24:31.540Z,37481.472
2023-05-12T15:27:45.415Z,38628.864
2023-05-12T15:30:23.587Z,39967.488
2023-05-12T15:32:58.158Z,31744.512
2023-05-12T15:35:41.957Z,30023.424
2023-05-12T15:38:21.168Z,28493.568
2023-05-12T15:41:01.542Z,15107.328
2023-05-12T15:43:34.595Z,16063.488
2023-05-12T15:46:05.664Z,19792.512
2023-05-12T15:49:44.062Z,12047.616
2023-05-12T15:52:19.932Z,7314.624
2023-05-12T15:54:53.034Z,4350.528
2023-05-12T15:57:57.017Z,2808.72
2023-05-12T16:01:05.806Z,2151.36
2023-05-12T16:03:44.136Z,2043.792
2023-05-12T16:07:38.770Z,1960.128
2023-05-12T16:10:17.008Z,2103.552
2023-05-12T16:12:50.163Z,2653.344
2023-05-12T16:15:38.628Z,3346.56
2023-05-12T16:18:22.005Z,3824.64
2023-05-12T16:21:20.551Z,4470.048
2023-05-12T16:23:53.690Z,5043.744
2023-05-12T16:26:26.860Z,5306.688
2023-05-12T16:29:01.535Z,5067.648
2023-05-12T16:31:34.781Z,4661.28
2023-05-12T16:34:13.859Z,4756.896
2023-05-12T16:36:47.113Z,5091.552
2023-05-12T16:39:30.426Z,4924.224
2023-05-12T16:42:13.756Z,3920.256
2023-05-12T16:44:52.132Z,2808.72
2023-05-12T16:47:35.426Z,2330.64
2023-05-12T16:50:23.839Z,2521.872
2023-05-12T16:53:17.305Z,3489.984
2023-05-12T16:55:50.458Z,4254.912
2023-05-12T16:59:19.649Z,4493.952
2023-05-12T17:02:13.267Z,4374.432
2023-05-12T17:05:16.827Z,4111.488
2023-05-12T17:08:35.830Z,3991.968
2023-05-12T17:12:20.331Z,3968.064
2023-05-12T17:15:03.763Z,3776.832
2023-05-12T17:17:52.031Z,3513.888
2023-05-12T17:20:25.026Z,3585.6
2023-05-12T17:24:29.859Z,4159.296
2023-05-12T17:27:28.451Z,4493.952
2023-05-12T17:30:11.782Z,5067.648
2023-05-12T17:33:15.458Z,5713.056
2023-05-12T17:36:19.092Z,5856.48
2023-05-12T17:38:57.353Z,5545.728
2023-05-12T17:41:40.609Z,4924.224
2023-05-12T17:44:39.221Z,4039.776
2023-05-12T17:49:24.881Z,2677.248
2023-05-12T17:52:02.988Z,2127.456
2023-05-12T17:54:36.102Z,1733.04
2023-05-12T17:57:14.233Z,1482.048
2023-05-12T18:00:38.366Z,1284.84
2023-05-12T18:03:11.413Z,1177.272
2023-05-12T18:09:22.444Z,842.616
2023-05-12T18:13:37.556Z,642.42
2023-05-12T18:18:36.679Z,519.912
2023-05-12T18:23:36.721Z,624.492
2023-05-12T18:26:25.157Z,603.576
2023-05-12T18:29:12.493Z,552.78
2023-05-12T18:32:41.740Z,528.876
2023-05-12T18:35:35.181Z,460.152
2023-05-12T18:38:08.333Z,370.512
2023-05-12T18:40:51.568Z,289.836
2023-05-12T18:43:24.704Z,227.088
2023-05-12T18:47:34.724Z,132.219
2023-05-12T18:50:38.352Z,81.423
2023-05-12T18:53:16.581Z,55.278
2023-05-12T18:55:49.732Z,39.964
2023-05-12T18:58:22.774Z,28.759
2023-05-12T19:02:02.289Z,16.807
2023-05-12T19:04:50.599Z,11.205
2023-05-12T19:07:28.721Z,7.096
2023-05-12T19:10:39.616Z,3.735
2023-05-12T19:14:06.687Z,2.241
2023-05-12T19:18:37.182Z,1.12
2023-05-12T19:21:50.979Z,0.373
2023-05-12T19:29:50.569Z,0
